sensor_id;sensor_type;location;lat;lon;timestamp;pressure;altitude;pressure_sealevel;temperature;humidity
76022;BME280;64718;52.124;6.226;2023-12-20T00:01:25;101522.34;;;5.14;100.00
76022;BME280;64718;52.124;6.226;2023-12-20T00:03:52;101525.84;;;5.10;100.00
76022;BME280;64718;52.124;6.226;2023-12-20T00:06:18;101528.38;;;5.13;100.00
76022;BME280;64718;52.124;6.226;2023-12-20T00:08:45;101525.84;;;5.07;100.00
76022;BME280;64718;52.124;6.226;2023-12-20T00:11:11;101525.03;;;5.03;100.00
76022;BME280;64718;52.124;6.226;2023-12-20T00:13:39;101517.28;;;5.03;100.00
76022;BME280;64718;52.124;6.226;2023-12-20T00:16:06;101514.69;;;5.06;100.00
76022;BME280;64718;52.124;6.226;2023-12-20T00:18:32;101517.34;;;4.97;100.00
76022;BME280;64718;52.124;6.226;2023-12-20T00:20:59;101519.84;;;5.08;100.00
76022;BME280;64718;52.124;6.226;2023-12-20T00:23:26;101515.53;;;5.07;100.00
76022;BME280;64718;52.124;6.226;2023-12-20T00:25:52;101512.94;;;5.10;100.00
76022;BME280;64718;52.124;6.226;2023-12-20T00:28:19;101517.28;;;5.03;100.00
76022;BME280;64718;52.124;6.226;2023-12-20T00:30:47;101504.41;;;5.05;100.00
76022;BME280;64718;52.124;6.226;2023-12-20T00:33:13;101511.38;;;4.92;100.00
76022;BME280;64718;52.124;6.226;2023-12-20T00:35:40;101508.88;;;4.86;100.00
76022;BME280;64718;52.124;6.226;2023-12-20T00:38:07;101511.47;;;4.83;100.00
76022;BME280;64718;52.124;6.226;2023-12-20T00:40:34;101514.06;;;4.82;100.00
76022;BME280;64718;52.124;6.226;2023-12-20T00:43:01;101512.34;;;4.81;100.00
76022;BME280;64718;52.124;6.226;2023-12-20T00:45:27;101520.06;;;4.81;100.00
76022;BME280;64718;52.124;6.226;2023-12-20T00:47:55;101513.25;;;4.76;100.00
76022;BME280;64718;52.124;6.226;2023-12-20T00:50:22;101515.00;;;4.71;100.00
76022;BME280;64718;52.124;6.226;2023-12-20T00:52:48;101521.91;;;4.66;100.00
76022;BME280;64718;52.124;6.226;2023-12-20T00:55:15;101522.75;;;4.67;100.00
76022;BME280;64718;52.124;6.226;2023-12-20T00:57:41;101527.09;;;4.59;100.00
76022;BME280;64718;52.124;6.226;2023-12-20T01:00:07;101521.06;;;4.60;100.00
76022;BME280;64718;52.124;6.226;2023-12-20T01:02:35;101515.13;;;4.52;100.00
76022;BME280;64718;52.124;6.226;2023-12-20T01:05:03;101518.53;;;4.52;100.00
76022;BME280;64718;52.124;6.226;2023-12-20T01:07:30;101506.59;;;4.42;100.00
76022;BME280;64718;52.124;6.226;2023-12-20T01:09:56;101507.47;;;4.39;100.00
76022;BME280;64718;52.124;6.226;2023-12-20T01:12:23;101512.63;;;4.39;100.00
76022;BME280;64718;52.124;6.226;2023-12-20T01:14:49;101510.03;;;4.41;100.00
76022;BME280;64718;52.124;6.226;2023-12-20T01:17:16;101506.66;;;4.33;100.00
76022;BME280;64718;52.124;6.226;2023-12-20T01:19:42;101512.72;;;4.23;100.00
76022;BME280;64718;52.124;6.226;2023-12-20T01:22:10;101513.50;;;4.35;100.00
76022;BME280;64718;52.124;6.226;2023-12-20T01:24:36;101499.75;;;4.41;100.00
76022;BME280;64718;52.124;6.226;2023-12-20T01:27:03;101509.97;;;4.49;100.00
76022;BME280;64718;52.124;6.226;2023-12-20T01:29:30;101515.22;;;4.36;100.00
76022;BME280;64718;52.124;6.226;2023-12-20T01:31:57;101519.50;;;4.37;100.00
76022;BME280;64718;52.124;6.226;2023-12-20T01:34:23;101507.50;;;4.33;100.00
76022;BME280;64718;52.124;6.226;2023-12-20T01:36:50;101516.94;;;4.37;100.00
76022;BME280;64718;52.124;6.226;2023-12-20T01:39:18;101519.50;;;4.37;100.00
76022;BME280;64718;52.124;6.226;2023-12-20T01:41:44;101516.91;;;4.40;100.00
76022;BME280;64718;52.124;6.226;2023-12-20T01:44:11;101522.06;;;4.40;100.00
76022;BME280;64718;52.124;6.226;2023-12-20T01:46:38;101510.97;;;4.32;100.00
76022;BME280;64718;52.124;6.226;2023-12-20T01:49:04;101507.53;;;4.30;100.00
76022;BME280;64718;52.124;6.226;2023-12-20T01:51:32;101516.09;;;4.35;100.00
76022;BME280;64718;52.124;6.226;2023-12-20T01:53:59;101514.38;;;4.34;100.00
76022;BME280;64718;52.124;6.226;2023-12-20T01:56:28;101511.78;;;4.39;100.00
76022;BME280;64718;52.124;6.226;2023-12-20T01:58:56;101510.06;;;4.38;100.00
76022;BME280;64718;52.124;6.226;2023-12-20T02:01:23;101522.91;;;4.41;100.00
76022;BME280;64718;52.124;6.226;2023-12-20T02:03:51;101517.78;;;4.36;100.00
76022;BME280;64718;52.124;6.226;2023-12-20T02:06:18;101518.63;;;4.40;100.00
76022;BME280;64718;52.124;6.226;2023-12-20T02:08:44;101525.50;;;4.38;100.00
76022;BME280;64718;52.124;6.226;2023-12-20T02:11:11;101527.22;;;4.40;100.00
76022;BME280;64718;52.124;6.226;2023-12-20T02:13:39;101518.66;;;4.37;100.00
76022;BME280;64718;52.124;6.226;2023-12-20T02:16:06;101519.50;;;4.36;100.00
76022;BME280;64718;52.124;6.226;2023-12-20T02:18:33;101520.38;;;4.33;100.00
76022;BME280;64718;52.124;6.226;2023-12-20T02:21:00;101523.00;;;4.29;100.00
76022;BME280;64718;52.124;6.226;2023-12-20T02:23:28;101511.78;;;4.37;100.00
76022;BME280;64718;52.124;6.226;2023-12-20T02:25:54;101511.78;;;4.36;100.00
76022;BME280;64718;52.124;6.226;2023-12-20T02:28:21;101504.03;;;4.39;100.00
76022;BME280;64718;52.124;6.226;2023-12-20T02:30:48;101505.72;;;4.44;100.00
76022;BME280;64718;52.124;6.226;2023-12-20T02:33:15;101505.72;;;4.43;100.00
76022;BME280;64718;52.124;6.226;2023-12-20T02:35:42;101486.84;;;4.41;100.00
76022;BME280;64718;52.124;6.226;2023-12-20T02:38:08;101488.56;;;4.45;100.00
76022;BME280;64718;52.124;6.226;2023-12-20T02:40:36;101495.41;;;4.46;100.00
76022;BME280;64718;52.124;6.226;2023-12-20T02:43:03;101491.91;;;4.55;100.00
76022;BME280;64718;52.124;6.226;2023-12-20T02:45:29;101490.19;;;4.54;100.00
76022;BME280;64718;52.124;6.226;2023-12-20T02:47:56;101496.22;;;4.51;100.00
76022;BME280;64718;52.124;6.226;2023-12-20T02:50:23;101491.03;;;4.59;100.00
76022;BME280;64718;52.124;6.226;2023-12-20T02:52:50;101487.59;;;4.57;100.00
76022;BME280;64718;52.124;6.226;2023-12-20T02:55:16;101484.09;;;4.70;100.00
76022;BME280;64718;52.124;6.226;2023-12-20T02:57:44;101481.44;;;4.79;100.00
76022;BME280;64718;52.124;6.226;2023-12-20T03:00:11;101471.06;;;4.85;100.00
76022;BME280;64718;52.124;6.226;2023-12-20T03:02:38;101473.63;;;4.87;100.00
76022;BME280;64718;52.124;6.226;2023-12-20T03:05:05;101471.88;;;4.90;100.00
76022;BME280;64718;52.124;6.226;2023-12-20T03:07:32;101471.06;;;4.85;100.00
76022;BME280;64718;52.124;6.226;2023-12-20T03:09:58;101459.84;;;4.91;100.00
76022;BME280;64718;52.124;6.226;2023-12-20T03:12:25;101460.66;;;4.97;100.00
76022;BME280;64718;52.124;6.226;2023-12-20T03:14:53;101457.19;;;5.00;100.00
76022;BME280;64718;52.124;6.226;2023-12-20T03:17:19;101464.13;;;4.92;100.00
76022;BME280;64718;52.124;6.226;2023-12-20T03:19:46;101461.50;;;4.96;100.00
76022;BME280;64718;52.124;6.226;2023-12-20T03:22:12;101455.41;;;5.05;100.00
76022;BME280;64718;52.124;6.226;2023-12-20T03:24:39;101457.28;;;4.91;100.00
76022;BME280;64718;52.124;6.226;2023-12-20T03:27:05;101460.72;;;4.88;100.00
76022;BME280;64718;52.124;6.226;2023-12-20T03:29:32;101459.06;;;4.84;100.00
76022;BME280;64718;52.124;6.226;2023-12-20T03:32:00;101458.28;;;4.76;100.00
76022;BME280;64718;52.124;6.226;2023-12-20T03:34:26;101456.53;;;4.80;100.00
76022;BME280;64718;52.124;6.226;2023-12-20T03:36:54;101458.31;;;4.70;100.00
76022;BME280;64718;52.124;6.226;2023-12-20T03:39:20;101460.06;;;4.66;100.00
76022;BME280;64718;52.124;6.226;2023-12-20T03:41:47;101447.09;;;4.77;100.00
76022;BME280;64718;52.124;6.226;2023-12-20T03:44:13;101443.53;;;4.92;100.00
76022;BME280;64718;52.124;6.226;2023-12-20T03:46:40;101446.09;;;4.93;100.00
76022;BME280;64718;52.124;6.226;2023-12-20T03:49:08;101442.56;;;5.02;100.00
76022;BME280;64718;52.124;6.226;2023-12-20T03:51:34;101445.91;;;5.10;100.00
76022;BME280;64718;52.124;6.226;2023-12-20T03:54:01;101443.34;;;5.08;100.00
76022;BME280;64718;52.124;6.226;2023-12-20T03:56:27;101453.53;;;5.22;100.00
76022;BME280;64718;52.124;6.226;2023-12-20T03:58:54;101458.69;;;5.19;100.00
76022;BME280;64718;52.124;6.226;2023-12-20T04:01:20;101458.69;;;5.24;100.00
76022;BME280;64718;52.124;6.226;2023-12-20T04:03:47;101451.84;;;5.21;100.00
76022;BME280;64718;52.124;6.226;2023-12-20T04:06:17;101456.97;;;5.23;100.00
76022;BME280;64718;52.124;6.226;2023-12-20T04:08:44;101460.44;;;5.22;100.00
76022;BME280;64718;52.124;6.226;2023-12-20T04:11:11;101468.16;;;5.19;100.00
76022;BME280;64718;52.124;6.226;2023-12-20T04:13:37;101457.91;;;5.14;100.00
76022;BME280;64718;52.124;6.226;2023-12-20T04:16:04;101462.16;;;5.18;100.00
76022;BME280;64718;52.124;6.226;2023-12-20T04:18:30;101463.03;;;5.20;100.00
76022;BME280;64718;52.124;6.226;2023-12-20T04:20:57;101462.09;;;5.27;100.00
76022;BME280;64718;52.124;6.226;2023-12-20T04:23:25;101447.44;;;5.31;100.00
76022;BME280;64718;52.124;6.226;2023-12-20T04:25:51;101459.44;;;5.33;100.00
76022;BME280;64718;52.124;6.226;2023-12-20T04:28:18;101466.44;;;5.22;100.00
76022;BME280;64718;52.124;6.226;2023-12-20T04:30:44;101450.16;;;5.14;100.00
76022;BME280;64718;52.124;6.226;2023-12-20T04:33:11;101457.13;;;5.04;100.00
76022;BME280;64718;52.124;6.226;2023-12-20T04:35:37;101446.88;;;5.00;100.00
76022;BME280;64718;52.124;6.226;2023-12-20T04:38:06;101452.84;;;5.05;100.00
76022;BME280;64718;52.124;6.226;2023-12-20T04:40:34;101451.91;;;5.11;100.00
76022;BME280;64718;52.124;6.226;2023-12-20T04:43:00;101449.25;;;5.20;100.00
76022;BME280;64718;52.124;6.226;2023-12-20T04:45:27;101446.69;;;5.18;100.00
76022;BME280;64718;52.124;6.226;2023-12-20T04:47:55;101444.13;;;5.17;100.00
76022;BME280;64718;52.124;6.226;2023-12-20T04:50:21;101434.63;;;5.22;100.00
76022;BME280;64718;52.124;6.226;2023-12-20T04:52:48;101432.03;;;5.23;100.00
76022;BME280;64718;52.124;6.226;2023-12-20T04:55:15;101432.88;;;5.25;100.00
76022;BME280;64718;52.124;6.226;2023-12-20T04:57:43;101433.72;;;5.26;100.00
76022;BME280;64718;52.124;6.226;2023-12-20T05:00:10;101429.31;;;5.35;100.00
76022;BME280;64718;52.124;6.226;2023-12-20T05:02:37;101425.06;;;5.33;100.00
76022;BME280;64718;52.124;6.226;2023-12-20T05:05:04;101430.97;;;5.41;100.00
76022;BME280;64718;52.124;6.226;2023-12-20T05:07:31;101427.44;;;5.48;100.00
76022;BME280;64718;52.124;6.226;2023-12-20T05:09:58;101429.16;;;5.48;100.00
76022;BME280;64718;52.124;6.226;2023-12-20T05:12:24;101430.06;;;5.44;100.00
76022;BME280;64718;52.124;6.226;2023-12-20T05:14:52;101422.31;;;5.45;100.00
76022;BME280;64718;52.124;6.226;2023-12-20T05:17:19;101421.41;;;5.49;100.00
76022;BME280;64718;52.124;6.226;2023-12-20T05:19:46;101415.34;;;5.53;100.00
76022;BME280;64718;52.124;6.226;2023-12-20T05:22:12;101408.63;;;5.42;100.00
76022;BME280;64718;52.124;6.226;2023-12-20T05:24:39;101409.47;;;5.42;100.00
76022;BME280;64718;52.124;6.226;2023-12-20T05:27:06;101415.59;;;5.33;100.00
76022;BME280;64718;52.124;6.226;2023-12-20T05:29:32;101416.38;;;5.40;100.00
76022;BME280;64718;52.124;6.226;2023-12-20T05:32:00;101417.09;;;5.51;100.00
76022;BME280;64718;52.124;6.226;2023-12-20T05:34:26;101422.16;;;5.57;100.00
76022;BME280;64718;52.124;6.226;2023-12-20T05:36:53;101419.63;;;5.54;100.00
76022;BME280;64718;52.124;6.226;2023-12-20T05:39:19;101401.47;;;5.62;100.00
76022;BME280;64718;52.124;6.226;2023-12-20T05:41:46;101405.78;;;5.60;100.00
76022;BME280;64718;52.124;6.226;2023-12-20T05:44:13;101414.34;;;5.63;100.00
76022;BME280;64718;52.124;6.226;2023-12-20T05:46:39;101414.38;;;5.62;100.00
76022;BME280;64718;52.124;6.226;2023-12-20T05:49:07;101415.22;;;5.62;100.00
76022;BME280;64718;52.124;6.226;2023-12-20T05:51:34;101409.16;;;5.66;100.00
76022;BME280;64718;52.124;6.226;2023-12-20T05:54:00;101410.81;;;5.69;100.00
76022;BME280;64718;52.124;6.226;2023-12-20T05:56:27;101415.94;;;5.72;100.00
76022;BME280;64718;52.124;6.226;2023-12-20T05:58:54;101415.06;;;5.73;100.00
76022;BME280;64718;52.124;6.226;2023-12-20T06:01:20;101418.50;;;5.73;100.00
76022;BME280;64718;52.124;6.226;2023-12-20T06:03:47;101408.22;;;5.72;100.00
76022;BME280;64718;52.124;6.226;2023-12-20T06:06:15;101413.31;;;5.75;100.00
76022;BME280;64718;52.124;6.226;2023-12-20T06:08:42;101414.16;;;5.80;100.00
76022;BME280;64718;52.124;6.226;2023-12-20T06:11:09;101418.47;;;5.80;100.00
76022;BME280;64718;52.124;6.226;2023-12-20T06:13:35;101415.91;;;5.78;100.00
76022;BME280;64718;52.124;6.226;2023-12-20T06:16:04;101416.75;;;5.79;100.00
76022;BME280;64718;52.124;6.226;2023-12-20T06:18:31;101415.03;;;5.79;100.00
76022;BME280;64718;52.124;6.226;2023-12-20T06:20:57;101418.34;;;5.90;100.00
76022;BME280;64718;52.124;6.226;2023-12-20T06:23:25;101411.47;;;5.89;100.00
76022;BME280;64718;52.124;6.226;2023-12-20T06:25:53;101405.41;;;5.89;100.00
76022;BME280;64718;52.124;6.226;2023-12-20T06:28:19;101415.72;;;5.92;100.00
76022;BME280;64718;52.124;6.226;2023-12-20T06:30:46;101401.13;;;5.91;100.00
76022;BME280;64718;52.124;6.226;2023-12-20T06:33:14;101400.25;;;5.92;100.00
76022;BME280;64718;52.124;6.226;2023-12-20T06:35:41;101404.59;;;5.90;100.00
76022;BME280;64718;52.124;6.226;2023-12-20T06:38:07;101400.22;;;5.93;100.00
76022;BME280;64718;52.124;6.226;2023-12-20T06:40:36;101395.88;;;5.95;100.00
76022;BME280;64718;52.124;6.226;2023-12-20T06:43:02;101396.63;;;6.03;100.00
76022;BME280;64718;52.124;6.226;2023-12-20T06:45:29;101393.94;;;6.10;100.00
76022;BME280;64718;52.124;6.226;2023-12-20T06:47:55;101390.53;;;6.09;100.00
76022;BME280;64718;52.124;6.226;2023-12-20T06:50:22;101387.97;;;6.08;100.00
76022;BME280;64718;52.124;6.226;2023-12-20T06:52:48;101397.41;;;6.09;100.00
76022;BME280;64718;52.124;6.226;2023-12-20T06:55:15;101393.13;;;6.08;100.00
76022;BME280;64718;52.124;6.226;2023-12-20T06:57:44;101396.53;;;6.10;100.00
76022;BME280;64718;52.124;6.226;2023-12-20T07:00:12;101395.63;;;6.12;100.00
76022;BME280;64718;52.124;6.226;2023-12-20T07:02:38;101393.09;;;6.09;100.00
76022;BME280;64718;52.124;6.226;2023-12-20T07:05:05;101388.72;;;6.14;100.00
76022;BME280;64718;52.124;6.226;2023-12-20T07:07:32;101390.38;;;6.18;100.00
76022;BME280;64718;52.124;6.226;2023-12-20T07:09:58;101383.47;;;6.19;100.00
76022;BME280;64718;52.124;6.226;2023-12-20T07:12:25;101380.91;;;6.19;100.00
76022;BME280;64718;52.124;6.226;2023-12-20T07:14:53;101380.13;;;6.14;100.00
76022;BME280;64718;52.124;6.226;2023-12-20T07:17:19;101388.63;;;6.19;100.00
76022;BME280;64718;52.124;6.226;2023-12-20T07:19:47;101379.22;;;6.16;100.00
76022;BME280;64718;52.124;6.226;2023-12-20T07:22:14;101375.69;;;6.20;100.00
76022;BME280;64718;52.124;6.226;2023-12-20T07:24:40;101373.91;;;6.25;100.00
76022;BME280;64718;52.124;6.226;2023-12-20T07:27:07;101367.06;;;6.23;100.00
76022;BME280;64718;52.124;6.226;2023-12-20T07:29:33;101379.00;;;6.30;100.00
76022;BME280;64718;52.124;6.226;2023-12-20T07:32:01;101377.38;;;6.23;100.00
76022;BME280;64718;52.124;6.226;2023-12-20T07:34:27;101373.09;;;6.22;100.00
76022;BME280;64718;52.124;6.226;2023-12-20T07:36:54;101371.25;;;6.30;100.00
76022;BME280;64718;52.124;6.226;2023-12-20T07:39:20;101372.13;;;6.29;100.00
76022;BME280;64718;52.124;6.226;2023-12-20T07:41:47;101377.28;;;6.29;100.00
76022;BME280;64718;52.124;6.226;2023-12-20T07:44:14;101376.47;;;6.25;100.00
76022;BME280;64718;52.124;6.226;2023-12-20T07:46:41;101370.44;;;6.26;100.00
76022;BME280;64718;52.124;6.226;2023-12-20T07:49:08;101367.81;;;6.28;100.00
76022;BME280;64718;52.124;6.226;2023-12-20T07:51:35;101368.66;;;6.30;100.00
76022;BME280;64718;52.124;6.226;2023-12-20T07:54:02;101359.13;;;6.33;100.00
76022;BME280;64718;52.124;6.226;2023-12-20T07:56:30;101366.94;;;6.30;100.00
76022;BME280;64718;52.124;6.226;2023-12-20T07:58:56;101368.59;;;6.33;100.00
76022;BME280;64718;52.124;6.226;2023-12-20T08:01:23;101369.41;;;6.38;100.00
76022;BME280;64718;52.124;6.226;2023-12-20T08:03:49;101369.41;;;6.38;100.00
76022;BME280;64718;52.124;6.226;2023-12-20T08:06:17;101380.63;;;6.35;100.00
76022;BME280;64718;52.124;6.226;2023-12-20T08:08:44;101386.66;;;6.36;100.00
76022;BME280;64718;52.124;6.226;2023-12-20T08:11:10;101384.84;;;6.43;100.00
76022;BME280;64718;52.124;6.226;2023-12-20T08:13:38;101383.09;;;6.43;100.00
76022;BME280;64718;52.124;6.226;2023-12-20T08:16:04;101379.63;;;6.44;100.00
76022;BME280;64718;52.124;6.226;2023-12-20T08:18:31;101380.44;;;6.48;100.00
76022;BME280;64718;52.124;6.226;2023-12-20T08:20:59;101383.81;;;6.51;100.00
76022;BME280;64718;52.124;6.226;2023-12-20T08:23:27;101383.78;;;6.53;100.00
76022;BME280;64718;52.124;6.226;2023-12-20T08:25:54;101378.56;;;6.56;100.00
76022;BME280;64718;52.124;6.226;2023-12-20T08:28:20;101375.09;;;6.57;100.00
76022;BME280;64718;52.124;6.226;2023-12-20T08:30:48;101377.63;;;6.61;100.00
76022;BME280;64718;52.124;6.226;2023-12-20T08:33:18;101377.59;;;6.63;100.00
76022;BME280;64718;52.124;6.226;2023-12-20T08:35:45;101374.16;;;6.62;100.00
76022;BME280;64718;52.124;6.226;2023-12-20T08:38:11;101373.34;;;6.59;100.00
76022;BME280;64718;52.124;6.226;2023-12-20T08:40:39;101366.41;;;6.61;100.00
76022;BME280;64718;52.124;6.226;2023-12-20T08:43:06;101362.97;;;6.62;100.00
76022;BME280;64718;52.124;6.226;2023-12-20T08:45:33;101362.00;;;6.68;100.00
76022;BME280;64718;52.124;6.226;2023-12-20T08:47:59;101365.44;;;6.68;100.00
76022;BME280;64718;52.124;6.226;2023-12-20T08:50:26;101368.88;;;6.69;100.00
76022;BME280;64718;52.124;6.226;2023-12-20T08:52:52;101365.41;;;6.70;100.00
76022;BME280;64718;52.124;6.226;2023-12-20T08:55:19;101375.81;;;6.66;100.00
76022;BME280;64718;52.124;6.226;2023-12-20T08:57:47;101368.94;;;6.64;100.00
76022;BME280;64718;52.124;6.226;2023-12-20T09:00:14;101363.78;;;6.64;100.00
76022;BME280;64718;52.124;6.226;2023-12-20T09:02:41;101365.56;;;6.60;100.00
76022;BME280;64718;52.124;6.226;2023-12-20T09:05:08;101367.28;;;6.61;100.00
76022;BME280;64718;52.124;6.226;2023-12-20T09:07:34;101371.59;;;6.61;100.00
76022;BME280;64718;52.124;6.226;2023-12-20T09:10:01;101368.16;;;6.60;100.00
76022;BME280;64718;52.124;6.226;2023-12-20T09:12:28;101368.19;;;6.59;100.00
76022;BME280;64718;52.124;6.226;2023-12-20T09:14:55;101371.66;;;6.58;100.00
76022;BME280;64718;52.124;6.226;2023-12-20T09:17:22;101377.44;;;6.71;100.00
76022;BME280;64718;52.124;6.226;2023-12-20T09:19:49;101377.53;;;6.66;100.00
76022;BME280;64718;52.124;6.226;2023-12-20T09:22:17;101375.88;;;6.62;100.00
76022;BME280;64718;52.124;6.226;2023-12-20T09:24:44;101372.47;;;6.60;100.00
76022;BME280;64718;52.124;6.226;2023-12-20T09:27:10;101370.78;;;6.59;100.00
76022;BME280;64718;52.124;6.226;2023-12-20T09:29:37;101374.19;;;6.61;100.00
76022;BME280;64718;52.124;6.226;2023-12-20T09:32:05;101378.50;;;6.60;100.00
76022;BME280;64718;52.124;6.226;2023-12-20T09:34:32;101375.97;;;6.57;100.00
76022;BME280;64718;52.124;6.226;2023-12-20T09:36:58;101382.09;;;6.52;100.00
76022;BME280;64718;52.124;6.226;2023-12-20T09:39:25;101384.75;;;6.47;100.00
76022;BME280;64718;52.124;6.226;2023-12-20T09:42:00;101393.41;;;6.45;100.00
76022;BME280;64718;52.124;6.226;2023-12-20T09:44:27;101390.84;;;6.43;100.00
76022;BME280;64718;52.124;6.226;2023-12-20T09:46:54;101395.97;;;6.46;100.00
76022;BME280;64718;52.124;6.226;2023-12-20T09:49:22;101391.66;;;6.47;100.00
76022;BME280;64718;52.124;6.226;2023-12-20T09:51:50;101395.94;;;6.48;100.00
76022;BME280;64718;52.124;6.226;2023-12-20T09:54:18;101397.69;;;6.47;100.00
76022;BME280;64718;52.124;6.226;2023-12-20T09:56:45;101395.09;;;6.47;100.00
76022;BME280;64718;52.124;6.226;2023-12-20T09:59:11;101396.03;;;6.43;100.00
76022;BME280;64718;52.124;6.226;2023-12-20T10:01:40;101397.75;;;6.43;100.00
76022;BME280;64718;52.124;6.226;2023-12-20T10:04:08;101405.38;;;6.50;100.00
76022;BME280;64718;52.124;6.226;2023-12-20T10:06:39;101410.47;;;6.55;100.00
76022;BME280;64718;52.124;6.226;2023-12-20T10:09:05;101410.50;;;6.52;100.00
76022;BME280;64718;52.124;6.226;2023-12-20T10:11:32;101411.38;;;6.52;100.00
76022;BME280;64718;52.124;6.226;2023-12-20T10:13:59;101403.59;;;6.54;100.00
76022;BME280;64718;52.124;6.226;2023-12-20T10:16:26;101390.66;;;6.55;100.00
76022;BME280;64718;52.124;6.226;2023-12-20T10:18:53;101394.06;;;6.56;100.00
76022;BME280;64718;52.124;6.226;2023-12-20T10:21:19;101400.84;;;6.63;100.00
76022;BME280;64718;52.124;6.226;2023-12-20T10:23:49;101395.56;;;6.69;100.00
76022;BME280;64718;52.124;6.226;2023-12-20T10:26:19;101398.94;;;6.74;100.00
76022;BME280;64718;52.124;6.226;2023-12-20T10:28:46;101404.91;;;6.76;100.00
76022;BME280;64718;52.124;6.226;2023-12-20T10:31:26;101408.31;;;6.78;100.00
76022;BME280;64718;52.124;6.226;2023-12-20T10:33:53;101397.19;;;6.75;100.00
76022;BME280;64718;52.124;6.226;2023-12-20T10:36:19;101399.78;;;6.75;100.00
76022;BME280;64718;52.124;6.226;2023-12-20T10:38:51;101390.28;;;6.75;100.00
76022;BME280;64718;52.124;6.226;2023-12-20T10:41:20;101397.13;;;6.78;100.00
76022;BME280;64718;52.124;6.226;2023-12-20T10:43:50;101400.56;;;6.78;100.00
76022;BME280;64718;52.124;6.226;2023-12-20T10:46:18;101390.19;;;6.80;100.00
76022;BME280;64718;52.124;6.226;2023-12-20T10:48:46;101385.81;;;6.83;100.00
76022;BME280;64718;52.124;6.226;2023-12-20T10:51:17;101380.59;;;6.86;100.00
76022;BME280;64718;52.124;6.226;2023-12-20T10:53:44;101371.97;;;6.87;100.00
76022;BME280;64718;52.124;6.226;2023-12-20T10:56:16;101380.50;;;6.91;100.00
76022;BME280;64718;52.124;6.226;2023-12-20T10:58:43;101369.25;;;6.95;100.00
76022;BME280;64718;52.124;6.226;2023-12-20T11:01:12;101368.28;;;7.01;100.00
76022;BME280;64718;52.124;6.226;2023-12-20T11:03:43;101362.22;;;7.03;100.00
76022;BME280;64718;52.124;6.226;2023-12-20T11:06:19;101357.91;;;7.02;100.00
76022;BME280;64718;52.124;6.226;2023-12-20T11:08:53;101358.72;;;7.06;100.00
76022;BME280;64718;52.124;6.226;2023-12-20T11:11:27;101353.38;;;7.13;100.00
76022;BME280;64718;52.124;6.226;2023-12-20T11:13:59;101347.06;;;7.26;100.00
76022;BME280;64718;52.124;6.226;2023-12-20T11:16:27;101343.53;;;7.30;100.00
76022;BME280;64718;52.124;6.226;2023-12-20T11:18:53;101340.09;;;7.30;100.00
76022;BME280;64718;52.124;6.226;2023-12-20T11:21:20;101334.84;;;7.33;100.00
76022;BME280;64718;52.124;6.226;2023-12-20T11:23:47;101337.59;;;7.25;100.00
76022;BME280;64718;52.124;6.226;2023-12-20T11:26:15;101335.69;;;7.34;100.00
76022;BME280;64718;52.124;6.226;2023-12-20T11:28:43;101324.41;;;7.38;100.00
76022;BME280;64718;52.124;6.226;2023-12-20T11:31:14;101319.31;;;7.33;100.00
76022;BME280;64718;52.124;6.226;2023-12-20T11:33:40;101313.44;;;7.26;100.00
76022;BME280;64718;52.124;6.226;2023-12-20T11:36:13;101311.81;;;7.21;100.00
76022;BME280;64718;52.124;6.226;2023-12-20T11:38:53;101304.97;;;7.18;100.00
76022;BME280;64718;52.124;6.226;2023-12-20T11:41:22;101311.06;;;7.16;100.00
76022;BME280;64718;52.124;6.226;2023-12-20T11:43:52;101309.47;;;7.10;100.00
76022;BME280;64718;52.124;6.226;2023-12-20T11:46:19;101299.03;;;7.15;100.00
76022;BME280;64718;52.124;6.226;2023-12-20T11:48:47;101291.03;;;7.25;100.00
76022;BME280;64718;52.124;6.226;2023-12-20T11:51:14;101296.16;;;7.27;100.00
76022;BME280;64718;52.124;6.226;2023-12-20T11:53:41;101295.22;;;7.31;100.00
76022;BME280;64718;52.124;6.226;2023-12-20T11:56:08;101300.22;;;7.39;100.00
76022;BME280;64718;52.124;6.226;2023-12-20T11:58:35;101298.22;;;7.51;100.00
76022;BME280;64718;52.124;6.226;2023-12-20T12:01:04;101285.94;;;7.61;100.00
76022;BME280;64718;52.124;6.226;2023-12-20T12:03:32;101288.41;;;7.66;100.00
76022;BME280;64718;52.124;6.226;2023-12-20T12:05:59;101293.41;;;7.73;100.00
76022;BME280;64718;52.124;6.226;2023-12-20T12:08:26;101289.00;;;7.77;100.00
76022;BME280;64718;52.124;6.226;2023-12-20T12:10:52;101288.09;;;7.79;100.00
76022;BME280;64718;52.124;6.226;2023-12-20T12:13:19;101285.34;;;7.85;100.00
76022;BME280;64718;52.124;6.226;2023-12-20T12:15:46;101281.81;;;7.89;100.00
76022;BME280;64718;52.124;6.226;2023-12-20T12:18:16;101283.22;;;8.01;100.00
76022;BME280;64718;52.124;6.226;2023-12-20T12:20:43;101284.00;;;8.05;100.00
76022;BME280;64718;52.124;6.226;2023-12-20T12:23:10;101272.91;;;8.00;100.00
76022;BME280;64718;52.124;6.226;2023-12-20T12:25:36;101275.38;;;8.04;100.00
76022;BME280;64718;52.124;6.226;2023-12-20T12:28:04;101271.16;;;8.00;100.00
76022;BME280;64718;52.124;6.226;2023-12-20T12:30:30;101273.00;;;7.97;100.00
76022;BME280;64718;52.124;6.226;2023-12-20T12:32:57;101266.97;;;7.96;100.00
76022;BME280;64718;52.124;6.226;2023-12-20T12:35:25;101263.31;;;8.03;100.00
76022;BME280;64718;52.124;6.226;2023-12-20T12:37:52;101257.25;;;8.04;100.00
76022;BME280;64718;52.124;6.226;2023-12-20T12:40:18;101244.19;;;8.09;100.00
76022;BME280;64718;52.124;6.226;2023-12-20T12:42:45;101240.69;;;8.11;100.00
76022;BME280;64718;52.124;6.226;2023-12-20T12:45:12;101244.09;;;8.13;100.00
76022;BME280;64718;52.124;6.226;2023-12-20T12:47:39;101244.00;;;8.16;100.00
76022;BME280;64718;52.124;6.226;2023-12-20T12:50:06;101246.69;;;8.13;100.00